sensor_id;sensor_type;location;lat;lon;timestamp;P1;durP1;ratioP1;P2;durP2;ratioP2
61336;SDS011;47212;41.326;2.104;2022-09-27T00:00:51;0.95;;;0.88;;
61336;SDS011;47212;41.326;2.104;2022-09-27T00:06:09;1.50;;;1.10;;
61336;SDS011;47212;41.326;2.104;2022-09-27T00:16:27;0.80;;;0.80;;
61336;SDS011;47212;41.326;2.104;2022-09-27T00:21:31;1.52;;;1.10;;
61336;SDS011;47212;41.326;2.104;2022-09-27T00:26:34;2.03;;;0.90;;
61336;SDS011;47212;41.326;2.104;2022-09-27T00:31:42;1.20;;;0.90;;
61336;SDS011;47212;41.326;2.104;2022-09-27T00:36:47;2.13;;;0.80;;
61336;SDS011;47212;41.326;2.104;2022-09-27T00:41:50;1.50;;;0.88;;
61336;SDS011;47212;41.326;2.104;2022-09-27T00:52:28;3.08;;;0.80;;
61336;SDS011;47212;41.326;2.104;2022-09-27T00:57:38;1.58;;;0.70;;
61336;SDS011;47212;41.326;2.104;2022-09-27T01:02:54;1.80;;;0.80;;
61336;SDS011;47212;41.326;2.104;2022-09-27T01:08:10;1.50;;;0.90;;
61336;SDS011;47212;41.326;2.104;2022-09-27T01:13:34;1.30;;;0.75;;
61336;SDS011;47212;41.326;2.104;2022-09-27T01:22:19;2.40;;;0.90;;
61336;SDS011;47212;41.326;2.104;2022-09-27T01:33:13;2.65;;;1.00;;
61336;SDS011;47212;41.326;2.104;2022-09-27T01:38:29;1.60;;;1.00;;
61336;SDS011;47212;41.326;2.104;2022-09-27T01:49:18;1.00;;;0.88;;
61336;SDS011;47212;41.326;2.104;2022-09-27T01:54:53;1.92;;;0.90;;
61336;SDS011;47212;41.326;2.104;2022-09-27T02:00:34;3.60;;;0.95;;
61336;SDS011;47212;41.326;2.104;2022-09-27T02:05:44;2.17;;;1.00;;
61336;SDS011;47212;41.326;2.104;2022-09-27T02:11:38;1.17;;;1.02;;
61336;SDS011;47212;41.326;2.104;2022-09-27T02:16:53;1.30;;;0.80;;
61336;SDS011;47212;41.326;2.104;2022-09-27T02:33:04;1.23;;;0.88;;
61336;SDS011;47212;41.326;2.104;2022-09-27T02:38:10;1.35;;;0.90;;
61336;SDS011;47212;41.326;2.104;2022-09-27T02:43:16;1.88;;;1.05;;
61336;SDS011;47212;41.326;2.104;2022-09-27T03:00:43;2.47;;;1.13;;
61336;SDS011;47212;41.326;2.104;2022-09-27T03:06:53;1.45;;;0.90;;
61336;SDS011;47212;41.326;2.104;2022-09-27T03:11:58;1.10;;;0.80;;
61336;SDS011;47212;41.326;2.104;2022-09-27T03:17:01;3.45;;;1.10;;
61336;SDS011;47212;41.326;2.104;2022-09-27T03:22:24;3.72;;;1.10;;
61336;SDS011;47212;41.326;2.104;2022-09-27T03:27:27;2.63;;;1.17;;
61336;SDS011;47212;41.326;2.104;2022-09-27T03:32:29;2.03;;;1.20;;
61336;SDS011;47212;41.326;2.104;2022-09-27T03:38:01;2.25;;;1.00;;
61336;SDS011;47212;41.326;2.104;2022-09-27T03:43:03;3.08;;;1.00;;
61336;SDS011;47212;41.326;2.104;2022-09-27T03:48:07;1.42;;;0.90;;
61336;SDS011;47212;41.326;2.104;2022-09-27T03:53:13;2.88;;;1.23;;
61336;SDS011;47212;41.326;2.104;2022-09-27T03:58:19;4.93;;;1.35;;
61336;SDS011;47212;41.326;2.104;2022-09-27T04:03:24;2.95;;;1.08;;
61336;SDS011;47212;41.326;2.104;2022-09-27T04:08:48;3.55;;;0.93;;
61336;SDS011;47212;41.326;2.104;2022-09-27T04:13:51;1.58;;;1.00;;
61336;SDS011;47212;41.326;2.104;2022-09-27T04:18:54;1.45;;;0.80;;
61336;SDS011;47212;41.326;2.104;2022-09-27T04:24:18;2.13;;;1.25;;
61336;SDS011;47212;41.326;2.104;2022-09-27T04:29:39;3.78;;;1.40;;
61336;SDS011;47212;41.326;2.104;2022-09-27T04:35:15;5.35;;;1.10;;
61336;SDS011;47212;41.326;2.104;2022-09-27T04:40:36;4.35;;;0.90;;
61336;SDS011;47212;41.326;2.104;2022-09-27T04:45:39;2.80;;;1.33;;
61336;SDS011;47212;41.326;2.104;2022-09-27T04:50:43;1.92;;;1.00;;
61336;SDS011;47212;41.326;2.104;2022-09-27T04:55:54;1.67;;;1.10;;
61336;SDS011;47212;41.326;2.104;2022-09-27T05:00:59;2.17;;;1.20;;
61336;SDS011;47212;41.326;2.104;2022-09-27T05:06:18;5.07;;;1.43;;
61336;SDS011;47212;41.326;2.104;2022-09-27T05:11:21;2.33;;;1.00;;
61336;SDS011;47212;41.326;2.104;2022-09-27T05:16:42;1.95;;;1.02;;
61336;SDS011;47212;41.326;2.104;2022-09-27T05:22:10;2.17;;;0.90;;
61336;SDS011;47212;41.326;2.104;2022-09-27T05:27:13;3.40;;;1.08;;
61336;SDS011;47212;41.326;2.104;2022-09-27T05:32:29;9.23;;;1.40;;
61336;SDS011;47212;41.326;2.104;2022-09-27T05:37:52;3.50;;;1.35;;
61336;SDS011;47212;41.326;2.104;2022-09-27T05:42:57;4.68;;;1.70;;
61336;SDS011;47212;41.326;2.104;2022-09-27T05:48:02;5.25;;;1.38;;
61336;SDS011;47212;41.326;2.104;2022-09-27T05:53:19;1.73;;;1.02;;
61336;SDS011;47212;41.326;2.104;2022-09-27T05:58:23;3.15;;;1.40;;
61336;SDS011;47212;41.326;2.104;2022-09-27T06:03:36;3.47;;;1.63;;
61336;SDS011;47212;41.326;2.104;2022-09-27T06:09:11;2.28;;;1.33;;
61336;SDS011;47212;41.326;2.104;2022-09-27T06:14:14;2.95;;;1.55;;
61336;SDS011;47212;41.326;2.104;2022-09-27T06:19:37;2.92;;;1.35;;
61336;SDS011;47212;41.326;2.104;2022-09-27T06:24:39;3.10;;;1.30;;
61336;SDS011;47212;41.326;2.104;2022-09-27T06:29:55;2.40;;;1.35;;
61336;SDS011;47212;41.326;2.104;2022-09-27T06:35:21;5.68;;;1.60;;
61336;SDS011;47212;41.326;2.104;2022-09-27T06:40:25;2.13;;;1.33;;
61336;SDS011;47212;41.326;2.104;2022-09-27T06:45:51;5.95;;;2.17;;
61336;SDS011;47212;41.326;2.104;2022-09-27T06:51:20;9.90;;;2.10;;
61336;SDS011;47212;41.326;2.104;2022-09-27T06:56:26;13.88;;;1.92;;
61336;SDS011;47212;41.326;2.104;2022-09-27T07:01:28;6.63;;;1.67;;
61336;SDS011;47212;41.326;2.104;2022-09-27T07:12:11;2.08;;;1.10;;
61336;SDS011;47212;41.326;2.104;2022-09-27T07:17:15;3.30;;;1.63;;
61336;SDS011;47212;41.326;2.104;2022-09-27T07:22:20;4.63;;;1.23;;
61336;SDS011;47212;41.326;2.104;2022-09-27T07:27:32;2.50;;;1.10;;
61336;SDS011;47212;41.326;2.104;2022-09-27T07:32:40;4.40;;;1.50;;
61336;SDS011;47212;41.326;2.104;2022-09-27T07:37:43;3.50;;;1.30;;
61336;SDS011;47212;41.326;2.104;2022-09-27T07:42:47;2.35;;;1.30;;
61336;SDS011;47212;41.326;2.104;2022-09-27T07:47:55;2.63;;;1.20;;
61336;SDS011;47212;41.326;2.104;2022-09-27T07:53:23;3.30;;;1.10;;
61336;SDS011;47212;41.326;2.104;2022-09-27T07:58:31;4.53;;;2.05;;
61336;SDS011;47212;41.326;2.104;2022-09-27T08:03:43;3.90;;;1.80;;
61336;SDS011;47212;41.326;2.104;2022-09-27T08:08:50;3.97;;;1.30;;
61336;SDS011;47212;41.326;2.104;2022-09-27T08:13:55;1.92;;;1.17;;
61336;SDS011;47212;41.326;2.104;2022-09-27T08:19:03;5.60;;;1.30;;
61336;SDS011;47212;41.326;2.104;2022-09-27T08:24:33;1.38;;;1.20;;
61336;SDS011;47212;41.326;2.104;2022-09-27T08:29:52;4.38;;;1.17;;
61336;SDS011;47212;41.326;2.104;2022-09-27T08:34:56;1.55;;;1.13;;
61336;SDS011;47212;41.326;2.104;2022-09-27T08:39:58;3.65;;;1.42;;
61336;SDS011;47212;41.326;2.104;2022-09-27T08:50:59;5.20;;;1.10;;
61336;SDS011;47212;41.326;2.104;2022-09-27T08:56:03;1.50;;;1.05;;
61336;SDS011;47212;41.326;2.104;2022-09-27T09:01:17;3.95;;;1.27;;
61336;SDS011;47212;41.326;2.104;2022-09-27T09:06:39;2.63;;;0.98;;
61336;SDS011;47212;41.326;2.104;2022-09-27T09:11:55;1.98;;;1.10;;
61336;SDS011;47212;41.326;2.104;2022-09-27T09:34:11;1.88;;;1.17;;
61336;SDS011;47212;41.326;2.104;2022-09-27T09:39:42;3.08;;;1.30;;
61336;SDS011;47212;41.326;2.104;2022-09-27T09:50:22;4.85;;;1.50;;
61336;SDS011;47212;41.326;2.104;2022-09-27T09:55:33;3.80;;;1.60;;
61336;SDS011;47212;41.326;2.104;2022-09-27T10:00:43;3.03;;;1.42;;
61336;SDS011;47212;41.326;2.104;2022-09-27T10:05:47;2.60;;;1.20;;
61336;SDS011;47212;41.326;2.104;2022-09-27T10:10:50;3.42;;;1.40;;
61336;SDS011;47212;41.326;2.104;2022-09-27T10:16:22;3.38;;;1.48;;
61336;SDS011;47212;41.326;2.104;2022-09-27T10:21:28;2.85;;;1.33;;
61336;SDS011;47212;41.326;2.104;2022-09-27T10:26:31;1.25;;;1.00;;
61336;SDS011;47212;41.326;2.104;2022-09-27T10:31:39;4.60;;;1.40;;
61336;SDS011;47212;41.326;2.104;2022-09-27T10:37:03;2.47;;;1.30;;
61336;SDS011;47212;41.326;2.104;2022-09-27T10:42:41;3.38;;;1.10;;
61336;SDS011;47212;41.326;2.104;2022-09-27T10:47:45;2.83;;;1.20;;
61336;SDS011;47212;41.326;2.104;2022-09-27T10:53:05;1.88;;;1.45;;
61336;SDS011;47212;41.326;2.104;2022-09-27T10:58:37;2.83;;;1.40;;
61336;SDS011;47212;41.326;2.104;2022-09-27T11:03:47;2.90;;;1.20;;
61336;SDS011;47212;41.326;2.104;2022-09-27T11:09:08;6.35;;;1.20;;
61336;SDS011;47212;41.326;2.104;2022-09-27T11:14:21;2.35;;;1.33;;
61336;SDS011;47212;41.326;2.104;2022-09-27T11:24:59;7.82;;;2.13;;
61336;SDS011;47212;41.326;2.104;2022-09-27T11:30:39;3.05;;;1.42;;
61336;SDS011;47212;41.326;2.104;2022-09-27T11:46:40;5.15;;;1.30;;
61336;SDS011;47212;41.326;2.104;2022-09-27T11:52:00;2.72;;;1.20;;
61336;SDS011;47212;41.326;2.104;2022-09-27T12:13:40;4.32;;;1.50;;
61336;SDS011;47212;41.326;2.104;2022-09-27T12:18:48;5.40;;;1.75;;
61336;SDS011;47212;41.326;2.104;2022-09-27T12:24:22;3.60;;;1.90;;
61336;SDS011;47212;41.326;2.104;2022-09-27T12:29:52;3.20;;;1.48;;
61336;SDS011;47212;41.326;2.104;2022-09-27T12:40:35;3.90;;;1.58;;
61336;SDS011;47212;41.326;2.104;2022-09-27T12:51:24;3.13;;;1.50;;
61336;SDS011;47212;41.326;2.104;2022-09-27T13:02:03;3.22;;;1.77;;
61336;SDS011;47212;41.326;2.104;2022-09-27T13:07:25;3.80;;;1.60;;
61336;SDS011;47212;41.326;2.104;2022-09-27T13:12:55;4.18;;;1.73;;
61336;SDS011;47212;41.326;2.104;2022-09-27T13:18:00;3.78;;;1.38;;
61336;SDS011;47212;41.326;2.104;2022-09-27T13:28:31;5.18;;;1.65;;
61336;SDS011;47212;41.326;2.104;2022-09-27T13:39:04;4.45;;;1.60;;
61336;SDS011;47212;41.326;2.104;2022-09-27T13:45:37;3.70;;;1.70;;
61336;SDS011;47212;41.326;2.104;2022-09-27T13:55:51;2.72;;;1.40;;
61336;SDS011;47212;41.326;2.104;2022-09-27T14:01:21;3.40;;;1.27;;
61336;SDS011;47212;41.326;2.104;2022-09-27T14:06:28;3.33;;;1.73;;
61336;SDS011;47212;41.326;2.104;2022-09-27T14:11:33;3.08;;;1.60;;
61336;SDS011;47212;41.326;2.104;2022-09-27T14:16:41;2.97;;;1.40;;
61336;SDS011;47212;41.326;2.104;2022-09-27T14:21:47;1.75;;;1.25;;
61336;SDS011;47212;41.326;2.104;2022-09-27T14:26:51;3.72;;;1.42;;
61336;SDS011;47212;41.326;2.104;2022-09-27T14:32:24;2.97;;;1.50;;
61336;SDS011;47212;41.326;2.104;2022-09-27T14:42:45;2.50;;;1.13;;
61336;SDS011;47212;41.326;2.104;2022-09-27T14:47:53;2.50;;;1.23;;
61336;SDS011;47212;41.326;2.104;2022-09-27T14:52:55;2.50;;;1.08;;
61336;SDS011;47212;41.326;2.104;2022-09-27T14:58:00;8.70;;;1.52;;
61336;SDS011;47212;41.326;2.104;2022-09-27T15:03:06;4.47;;;1.58;;
61336;SDS011;47212;41.326;2.104;2022-09-27T15:08:10;2.95;;;1.17;;
61336;SDS011;47212;41.326;2.104;2022-09-27T15:13:16;4.13;;;1.38;;
61336;SDS011;47212;41.326;2.104;2022-09-27T15:23:44;1.75;;;1.00;;
61336;SDS011;47212;41.326;2.104;2022-09-27T15:28:46;2.72;;;1.30;;
61336;SDS011;47212;41.326;2.104;2022-09-27T15:33:53;3.47;;;1.30;;
61336;SDS011;47212;41.326;2.104;2022-09-27T15:44:47;4.75;;;1.30;;
61336;SDS011;47212;41.326;2.104;2022-09-27T15:49:55;2.92;;;1.23;;
61336;SDS011;47212;41.326;2.104;2022-09-27T15:55:20;3.33;;;1.30;;
61336;SDS011;47212;41.326;2.104;2022-09-27T16:00:27;4.68;;;1.27;;
61336;SDS011;47212;41.326;2.104;2022-09-27T16:05:30;2.35;;;1.08;;
61336;SDS011;47212;41.326;2.104;2022-09-27T16:10:37;2.28;;;1.10;;
61336;SDS011;47212;41.326;2.104;2022-09-27T16:15:42;2.50;;;1.40;;
61336;SDS011;47212;41.326;2.104;2022-09-27T16:20:46;4.93;;;1.35;;
61336;SDS011;47212;41.326;2.104;2022-09-27T16:25:48;2.05;;;1.00;;
61336;SDS011;47212;41.326;2.104;2022-09-27T16:30:52;2.40;;;1.30;;
61336;SDS011;47212;41.326;2.104;2022-09-27T16:35:54;4.68;;;1.17;;
61336;SDS011;47212;41.326;2.104;2022-09-27T16:41:00;2.55;;;1.20;;
61336;SDS011;47212;41.326;2.104;2022-09-27T16:46:04;3.53;;;1.20;;
61336;SDS011;47212;41.326;2.104;2022-09-27T16:51:11;5.22;;;1.30;;
61336;SDS011;47212;41.326;2.104;2022-09-27T16:56:34;3.97;;;1.38;;
61336;SDS011;47212;41.326;2.104;2022-09-27T17:01:36;4.47;;;1.50;;
61336;SDS011;47212;41.326;2.104;2022-09-27T17:06:39;4.50;;;2.40;;
61336;SDS011;47212;41.326;2.104;2022-09-27T17:11:45;2.60;;;1.40;;
61336;SDS011;47212;41.326;2.104;2022-09-27T17:16:49;5.38;;;1.65;;
61336;SDS011;47212;41.326;2.104;2022-09-27T17:21:52;2.55;;;1.20;;
61336;SDS011;47212;41.326;2.104;2022-09-27T17:26:59;4.57;;;1.35;;
61336;SDS011;47212;41.326;2.104;2022-09-27T17:32:02;1.60;;;1.10;;
61336;SDS011;47212;41.326;2.104;2022-09-27T17:37:09;3.05;;;1.33;;
61336;SDS011;47212;41.326;2.104;2022-09-27T17:42:11;6.35;;;1.63;;
61336;SDS011;47212;41.326;2.104;2022-09-27T17:47:16;2.50;;;1.15;;
61336;SDS011;47212;41.326;2.104;2022-09-27T17:52:37;3.28;;;1.15;;
61336;SDS011;47212;41.326;2.104;2022-09-27T17:57:40;3.58;;;1.30;;
61336;SDS011;47212;41.326;2.104;2022-09-27T18:02:49;5.45;;;1.50;;
61336;SDS011;47212;41.326;2.104;2022-09-27T18:07:52;4.82;;;1.35;;
61336;SDS011;47212;41.326;2.104;2022-09-27T18:12:53;2.92;;;1.63;;
61336;SDS011;47212;41.326;2.104;2022-09-27T18:17:59;7.93;;;1.80;;
61336;SDS011;47212;41.326;2.104;2022-09-27T18:23:03;3.88;;;1.83;;
61336;SDS011;47212;41.326;2.104;2022-09-27T18:28:05;4.78;;;2.08;;
61336;SDS011;47212;41.326;2.104;2022-09-27T18:33:08;5.05;;;3.05;;
61336;SDS011;47212;41.326;2.104;2022-09-27T18:38:10;3.58;;;2.30;;
61336;SDS011;47212;41.326;2.104;2022-09-27T18:43:13;3.90;;;1.77;;
61336;SDS011;47212;41.326;2.104;2022-09-27T18:48:18;1.67;;;1.20;;
61336;SDS011;47212;41.326;2.104;2022-09-27T18:53:30;4.10;;;1.40;;
61336;SDS011;47212;41.326;2.104;2022-09-27T18:58:37;2.90;;;1.30;;
61336;SDS011;47212;41.326;2.104;2022-09-27T19:03:40;3.08;;;1.42;;
61336;SDS011;47212;41.326;2.104;2022-09-27T19:08:43;3.20;;;1.60;;
61336;SDS011;47212;41.326;2.104;2022-09-27T19:13:49;3.47;;;1.70;;
61336;SDS011;47212;41.326;2.104;2022-09-27T19:18:53;2.80;;;1.48;;
61336;SDS011;47212;41.326;2.104;2022-09-27T19:24:50;3.95;;;1.30;;
61336;SDS011;47212;41.326;2.104;2022-09-27T19:29:52;2.00;;;1.30;;
61336;SDS011;47212;41.326;2.104;2022-09-27T19:34:59;3.97;;;1.65;;
61336;SDS011;47212;41.326;2.104;2022-09-27T19:40:02;2.65;;;1.40;;
61336;SDS011;47212;41.326;2.104;2022-09-27T19:45:10;3.63;;;1.35;;
61336;SDS011;47212;41.326;2.104;2022-09-27T19:50:14;1.38;;;1.08;;
61336;SDS011;47212;41.326;2.104;2022-09-27T19:55:20;1.98;;;1.33;;
61336;SDS011;47212;41.326;2.104;2022-09-27T20:00:22;5.82;;;1.80;;
61336;SDS011;47212;41.326;2.104;2022-09-27T20:05:26;2.38;;;1.83;;
61336;SDS011;47212;41.326;2.104;2022-09-27T20:10:28;2.35;;;1.38;;
61336;SDS011;47212;41.326;2.104;2022-09-27T20:15:34;2.22;;;1.25;;
61336;SDS011;47212;41.326;2.104;2022-09-27T20:20:40;3.30;;;2.25;;
61336;SDS011;47212;41.326;2.104;2022-09-27T20:25:42;3.10;;;1.70;;
61336;SDS011;47212;41.326;2.104;2022-09-27T20:30:55;3.47;;;1.33;;
61336;SDS011;47212;41.326;2.104;2022-09-27T20:35:58;3.67;;;1.40;;
61336;SDS011;47212;41.326;2.104;2022-09-27T20:41:01;2.67;;;1.50;;
61336;SDS011;47212;41.326;2.104;2022-09-27T20:46:07;3.55;;;1.60;;
61336;SDS011;47212;41.326;2.104;2022-09-27T20:51:12;4.97;;;2.30;;
61336;SDS011;47212;41.326;2.104;2022-09-27T21:01:25;3.35;;;2.00;;
61336;SDS011;47212;41.326;2.104;2022-09-27T21:06:28;5.68;;;2.30;;
61336;SDS011;47212;41.326;2.104;2022-09-27T21:11:33;4.93;;;2.40;;
61336;SDS011;47212;41.326;2.104;2022-09-27T21:16:38;4.35;;;2.28;;
61336;SDS011;47212;41.326;2.104;2022-09-27T21:21:44;4.97;;;2.40;;
61336;SDS011;47212;41.326;2.104;2022-09-27T21:26:46;3.03;;;2.13;;
61336;SDS011;47212;41.326;2.104;2022-09-27T21:31:58;5.70;;;2.70;;
61336;SDS011;47212;41.326;2.104;2022-09-27T21:37:00;3.25;;;2.22;;
61336;SDS011;47212;41.326;2.104;2022-09-27T21:42:05;5.15;;;2.40;;
61336;SDS011;47212;41.326;2.104;2022-09-27T21:47:12;4.22;;;2.33;;
61336;SDS011;47212;41.326;2.104;2022-09-27T21:52:18;9.60;;;2.80;;
61336;SDS011;47212;41.326;2.104;2022-09-27T21:57:20;6.22;;;2.55;;
61336;SDS011;47212;41.326;2.104;2022-09-27T22:02:22;7.13;;;2.70;;
61336;SDS011;47212;41.326;2.104;2022-09-27T22:07:24;6.70;;;2.47;;
61336;SDS011;47212;41.326;2.104;2022-09-27T22:12:26;5.22;;;2.63;;
61336;SDS011;47212;41.326;2.104;2022-09-27T22:17:28;7.82;;;3.00;;
61336;SDS011;47212;41.326;2.104;2022-09-27T22:22:31;6.50;;;2.90;;
61336;SDS011;47212;41.326;2.104;2022-09-27T22:27:33;4.63;;;2.40;;
61336;SDS011;47212;41.326;2.104;2022-09-27T22:32:35;4.30;;;2.30;;
61336;SDS011;47212;41.326;2.104;2022-09-27T22:37:37;3.40;;;2.15;;
61336;SDS011;47212;41.326;2.104;2022-09-27T22:42:39;4.80;;;2.30;;
61336;SDS011;47212;41.326;2.104;2022-09-27T22:47:42;4.45;;;2.42;;
61336;SDS011;47212;41.326;2.104;2022-09-27T22:52:45;3.58;;;2.17;;
61336;SDS011;47212;41.326;2.104;2022-09-27T22:57:50;7.05;;;2.42;;
61336;SDS011;47212;41.326;2.104;2022-09-27T23:02:55;4.65;;;2.40;;
61336;SDS011;47212;41.326;2.104;2022-09-27T23:07:58;8.00;;;2.20;;
61336;SDS011;47212;41.326;2.104;2022-09-27T23:13:00;5.38;;;1.98;;
61336;SDS011;47212;41.326;2.104;2022-09-27T23:18:03;4.57;;;2.25;;
61336;SDS011;47212;41.326;2.104;2022-09-27T23:23:11;5.65;;;2.10;;
61336;SDS011;47212;41.326;2.104;2022-09-27T23:28:14;6.85;;;2.00;;
61336;SDS011;47212;41.326;2.104;2022-09-27T23:33:16;5.88;;;2.22;;
61336;SDS011;47212;41.326;2.104;2022-09-27T23:38:18;3.85;;;1.63;;
61336;SDS011;47212;41.326;2.104;2022-09-27T23:43:20;6.97;;;2.00;;
61336;SDS011;47212;41.326;2.104;2022-09-27T23:48:22;4.97;;;1.73;;
61336;SDS011;47212;41.326;2.104;2022-09-27T23:53:25;7.32;;;2.00;;
61336;SDS011;47212;41.326;2.104;2022-09-27T23:58:36;6.32;;;1.83;;
